createdAt,value
2018-11-28T00:00:28.883Z,97.07
2018-11-28T00:02:56.837Z,97.51
2018-11-28T00:05:24.263Z,97.04
2018-11-28T00:07:51.729Z,96.81
2018-11-28T00:10:19.147Z,96.63
2018-11-28T00:12:46.639Z,97.00
2018-11-28T00:15:15.056Z,97.54
2018-11-28T00:17:42.598Z,97.48
2018-11-28T00:20:15.222Z,97.47
2018-11-28T00:22:42.994Z,97.78
2018-11-28T00:25:11.442Z,97.99
2018-11-28T00:27:39.450Z,97.90
2018-11-28T00:30:11.262Z,98.43
2018-11-28T00:32:38.792Z,98.28
2018-11-28T00:35:07.678Z,97.72
2018-11-28T00:37:35.124Z,98.22
2018-11-28T00:40:02.556Z,97.70
2018-11-28T00:42:31.201Z,97.90
2018-11-28T00:44:58.912Z,97.58
2018-11-28T00:47:26.356Z,97.50
2018-11-28T00:49:53.816Z,98.35
2018-11-28T00:52:21.264Z,97.74
2018-11-28T00:54:48.708Z,97.88
2018-11-28T00:57:16.104Z,98.31
2018-11-28T00:59:43.583Z,97.27
2018-11-28T01:02:11.181Z,97.07
2018-11-28T01:04:38.625Z,97.80
2018-11-28T01:07:06.433Z,96.59
2018-11-28T01:09:33.845Z,96.76
2018-11-28T01:12:01.287Z,95.51
2018-11-28T01:14:28.736Z,94.68
2018-11-28T01:16:56.187Z,94.30
2018-11-28T01:19:23.683Z,93.96
2018-11-28T01:21:51.137Z,94.63
2018-11-28T01:24:18.530Z,95.70
2018-11-28T01:26:46.914Z,95.94
2018-11-28T01:29:14.320Z,95.11
2018-11-28T01:31:41.789Z,96.43
2018-11-28T01:34:09.184Z,96.09
2018-11-28T01:36:37.386Z,96.67
2018-11-28T01:39:05.773Z,96.20
2018-11-28T01:41:33.199Z,95.60
2018-11-28T01:44:00.563Z,96.31
2018-11-28T01:46:28.099Z,96.07
2018-11-28T01:48:56.153Z,96.24
2018-11-28T01:51:23.568Z,95.96
2018-11-28T01:53:50.952Z,95.77
2018-11-28T01:56:18.479Z,95.65
2018-11-28T01:58:46.284Z,95.55
2018-11-28T02:01:13.714Z,96.63
2018-11-28T02:03:41.114Z,95.36
2018-11-28T02:06:08.548Z,96.45
2018-11-28T02:08:35.909Z,95.45
2018-11-28T02:11:03.347Z,95.62
2018-11-28T02:13:30.778Z,95.80
2018-11-28T02:15:58.164Z,96.70
2018-11-28T02:18:25.868Z,97.29
2018-11-28T02:20:53.277Z,97.07
2018-11-28T02:23:21.270Z,97.08
2018-11-28T02:25:48.702Z,96.77
2018-11-28T02:28:16.119Z,96.94
2018-11-28T02:30:43.518Z,96.58
2018-11-28T02:33:11.008Z,95.97
2018-11-28T02:35:38.385Z,95.98
2018-11-28T02:38:05.843Z,96.20
2018-11-28T02:40:33.233Z,95.40
2018-11-28T02:43:00.644Z,95.57
2018-11-28T02:45:28.200Z,95.49
2018-11-28T02:47:55.645Z,95.65
2018-11-28T02:50:23.030Z,95.66
2018-11-28T02:52:50.475Z,95.32
2018-11-28T02:55:18.278Z,96.17
2018-11-28T02:57:47.653Z,95.90
2018-11-28T03:00:18.178Z,96.16
2018-11-28T03:02:45.578Z,96.30
2018-11-28T03:05:13.532Z,96.24
2018-11-28T03:07:40.925Z,97.05
2018-11-28T03:10:11.110Z,96.89
2018-11-28T03:12:38.514Z,96.16
2018-11-28T03:15:07.735Z,97.07
2018-11-28T03:17:35.114Z,96.32
2018-11-28T03:20:02.538Z,95.72
2018-11-28T03:22:29.968Z,96.18
2018-11-28T03:24:57.429Z,96.63
2018-11-28T03:27:24.839Z,95.80
2018-11-28T03:29:52.743Z,97.08
2018-11-28T03:32:20.181Z,96.59
2018-11-28T03:34:47.564Z,95.41
2018-11-28T03:37:15.070Z,95.06
2018-11-28T03:39:42.466Z,96.13
2018-11-28T03:42:09.921Z,96.09
2018-11-28T03:44:37.328Z,96.00
2018-11-28T03:47:04.793Z,96.75
2018-11-28T03:49:32.250Z,95.86
2018-11-28T03:51:59.861Z,96.01
2018-11-28T03:54:27.281Z,97.03
2018-11-28T03:56:54.857Z,95.97
2018-11-28T03:59:22.254Z,96.35
2018-11-28T04:01:49.696Z,96.22
2018-11-28T04:04:17.088Z,96.29
2018-11-28T04:06:45.064Z,96.66
2018-11-28T04:09:12.505Z,96.98
2018-11-28T04:11:39.883Z,96.63
2018-11-28T04:14:07.550Z,96.54
2018-11-28T04:16:34.926Z,96.05
2018-11-28T04:19:04.757Z,96.37
2018-11-28T04:21:32.505Z,95.94
2018-11-28T04:24:00.275Z,96.81
2018-11-28T04:26:28.322Z,97.11
2018-11-28T04:28:55.749Z,96.72
2018-11-28T04:31:23.231Z,97.35
2018-11-28T04:33:50.832Z,97.53
2018-11-28T04:36:18.790Z,96.74
2018-11-28T04:38:46.382Z,96.07
2018-11-28T04:41:13.813Z,96.75
2018-11-28T04:43:41.286Z,97.00
2018-11-28T04:46:08.691Z,95.29
2018-11-28T04:48:36.131Z,96.13
2018-11-28T04:51:03.565Z,95.40
2018-11-28T04:53:31.027Z,96.14
2018-11-28T04:55:58.496Z,96.77
2018-11-28T04:58:25.925Z,96.72
2018-11-28T05:00:53.329Z,96.54
2018-11-28T05:03:20.726Z,95.84
2018-11-28T05:05:48.259Z,96.45
2018-11-28T05:08:15.739Z,95.91
2018-11-28T05:10:43.140Z,95.53
2018-11-28T05:13:10.533Z,95.87
2018-11-28T05:15:37.979Z,96.08
2018-11-28T05:18:05.462Z,96.40
2018-11-28T05:20:33.914Z,95.77
2018-11-28T05:23:01.821Z,95.62
2018-11-28T05:25:29.339Z,96.70
2018-11-28T05:27:57.896Z,96.12
2018-11-28T05:30:27.513Z,96.78
2018-11-28T05:32:54.935Z,96.57
2018-11-28T05:35:25.266Z,95.79
2018-11-28T05:37:53.072Z,96.19
2018-11-28T05:40:21.795Z,96.38
2018-11-28T05:42:49.365Z,96.29
2018-11-28T05:45:17.841Z,96.05
2018-11-28T05:47:45.316Z,96.42
2018-11-28T05:50:14.256Z,97.15
2018-11-28T05:52:41.679Z,97.14
2018-11-28T05:55:10.460Z,96.93
2018-11-28T05:57:37.884Z,96.74
2018-11-28T06:00:11.741Z,96.32
2018-11-28T06:02:39.201Z,96.60
2018-11-28T06:05:08.066Z,97.48
2018-11-28T06:07:35.536Z,96.46
2018-11-28T06:10:03.086Z,96.37
2018-11-28T06:12:30.495Z,96.00
2018-11-28T06:14:58.015Z,96.39
2018-11-28T06:17:25.560Z,96.78
2018-11-28T06:19:52.974Z,96.75
2018-11-28T06:22:21.236Z,96.55
2018-11-28T06:24:48.650Z,97.29
2018-11-28T06:27:17.028Z,97.28
2018-11-28T06:29:44.461Z,97.49
2018-11-28T06:32:11.859Z,96.77
2018-11-28T06:34:40.527Z,97.39
2018-11-28T06:37:07.935Z,97.19
2018-11-28T06:39:35.377Z,97.48
2018-11-28T06:42:02.866Z,97.08
2018-11-28T06:44:30.296Z,96.80
2018-11-28T06:46:57.736Z,97.33
2018-11-28T06:49:25.155Z,97.93
2018-11-28T06:51:53.227Z,97.69
2018-11-28T06:54:21.245Z,97.80
2018-11-28T06:56:48.631Z,98.45
2018-11-28T06:59:16.047Z,98.77
2018-11-28T07:01:43.502Z,99.24
2018-11-28T07:04:10.920Z,98.60
2018-11-28T07:06:38.432Z,97.84
2018-11-28T07:09:07.325Z,98.35
2018-11-28T07:11:35.399Z,98.21
2018-11-28T07:14:02.820Z,98.80
2018-11-28T07:16:30.297Z,98.29
2018-11-28T07:19:13.194Z,98.47
2018-11-28T07:21:40.717Z,98.12
2018-11-28T07:24:08.256Z,97.33
2018-11-28T07:26:36.314Z,98.05
2018-11-28T07:29:04.087Z,97.74
2018-11-28T07:31:31.561Z,96.49
2018-11-28T07:33:58.976Z,96.44
2018-11-28T07:36:26.565Z,95.74
2018-11-28T07:38:54.252Z,95.38
2018-11-28T07:41:22.257Z,94.36
2018-11-28T07:43:50.170Z,95.01
2018-11-28T07:46:17.571Z,94.89
2018-11-28T07:48:45.041Z,94.98
2018-11-28T07:51:12.607Z,94.90
2018-11-28T07:53:40.141Z,94.54
2018-11-28T07:56:07.622Z,94.76
2018-11-28T07:58:35.062Z,94.70
2018-11-28T08:01:02.656Z,93.43
2018-11-28T08:03:30.730Z,93.61
2018-11-28T08:05:58.696Z,93.67
2018-11-28T08:08:26.151Z,93.35
2018-11-28T08:10:54.266Z,94.17
2018-11-28T08:13:22.407Z,94.13
2018-11-28T08:15:49.956Z,93.63
2018-11-28T08:18:17.366Z,93.49
2018-11-28T08:20:44.821Z,93.81
2018-11-28T08:23:12.253Z,93.10
2018-11-28T08:25:39.707Z,92.43
2018-11-28T08:28:07.742Z,92.76
2018-11-28T08:30:35.092Z,91.76
2018-11-28T08:33:02.499Z,92.20
2018-11-28T08:35:29.987Z,93.13
2018-11-28T08:37:57.466Z,93.12
2018-11-28T08:40:25.975Z,92.63
2018-11-28T08:42:54.687Z,92.96
2018-11-28T08:45:22.241Z,92.88
2018-11-28T08:47:51.076Z,92.50
2018-11-28T08:50:20.446Z,92.76
2018-11-28T08:52:47.922Z,92.62
2018-11-28T08:55:15.454Z,92.07
2018-11-28T08:57:43.439Z,90.65
2018-11-28T09:00:14.163Z,90.52
2018-11-28T09:02:41.642Z,91.25
2018-11-28T09:05:10.373Z,91.64
2018-11-28T09:07:38.037Z,91.02
2018-11-28T09:10:21.291Z,91.56
2018-11-28T09:12:49.645Z,92.38
2018-11-28T09:15:22.407Z,91.57
2018-11-28T09:17:50.062Z,91.52
2018-11-28T09:20:17.629Z,91.92
2018-11-28T09:22:45.068Z,92.17
2018-11-28T09:25:13.693Z,91.63
2018-11-28T09:27:41.752Z,91.28
2018-11-28T09:30:14.368Z,91.30
2018-11-28T09:32:41.784Z,91.13
2018-11-28T09:35:10.207Z,90.56
2018-11-28T09:37:37.622Z,90.51
2018-11-28T09:40:09.491Z,90.88
2018-11-28T09:42:37.597Z,91.49
2018-11-28T09:45:05.947Z,91.28
2018-11-28T09:47:33.382Z,89.06
2018-11-28T09:50:00.934Z,88.79
2018-11-28T09:52:29.212Z,89.53
2018-11-28T09:54:56.626Z,90.34
2018-11-28T09:57:24.026Z,90.34
2018-11-28T09:59:51.542Z,90.13
2018-11-28T10:02:19.174Z,88.50
2018-11-28T10:04:46.577Z,88.53
2018-11-28T10:07:14.059Z,87.15
2018-11-28T10:09:41.947Z,88.37
2018-11-28T10:12:09.410Z,88.49
2018-11-28T10:14:36.812Z,88.35
2018-11-28T10:17:04.565Z,88.40
2018-11-28T10:19:31.999Z,87.72
2018-11-28T10:21:59.502Z,87.72
2018-11-28T10:24:26.953Z,88.01
2018-11-28T10:26:54.438Z,88.65
2018-11-28T10:29:22.363Z,87.74
2018-11-28T10:31:50.432Z,86.41
2018-11-28T10:34:17.834Z,84.62
2018-11-28T10:36:45.379Z,84.82
2018-11-28T10:39:12.809Z,85.51
2018-11-28T10:41:40.245Z,85.56
2018-11-28T10:44:08.459Z,86.38
2018-11-28T10:46:35.955Z,85.76
2018-11-28T10:49:04.300Z,84.67
2018-11-28T10:51:31.754Z,86.04
2018-11-28T10:53:59.164Z,86.08
2018-11-28T10:56:26.666Z,85.61
2018-11-28T10:58:54.081Z,83.99
2018-11-28T11:01:25.103Z,85.41
2018-11-28T11:04:00.177Z,84.84
2018-11-28T11:06:33.098Z,83.49
2018-11-28T11:09:06.128Z,84.26
2018-11-28T11:11:39.181Z,83.93
2018-11-28T11:14:12.218Z,84.80
2018-11-28T11:16:39.638Z,83.69
2018-11-28T11:19:07.233Z,84.29
2018-11-28T11:21:35.233Z,83.52
2018-11-28T11:24:02.659Z,85.40
2018-11-28T11:26:30.030Z,85.09
2018-11-28T11:28:57.495Z,84.11
2018-11-28T11:31:25.069Z,83.54
2018-11-28T11:33:52.593Z,81.60
2018-11-28T11:36:20.709Z,81.67
2018-11-28T11:38:48.144Z,81.73
2018-11-28T11:41:15.619Z,81.33
2018-11-28T11:43:43.075Z,83.12
2018-11-28T11:46:10.549Z,82.37
2018-11-28T11:48:37.947Z,81.13
2018-11-28T11:51:05.685Z,80.81
2018-11-28T11:53:33.056Z,80.97
2018-11-28T11:56:00.478Z,80.22
2018-11-28T11:58:27.905Z,76.56
2018-11-28T12:00:55.350Z,78.48
2018-11-28T12:03:22.795Z,78.35
2018-11-28T12:05:53.505Z,77.40
2018-11-28T12:08:21.435Z,78.42
2018-11-28T12:10:48.932Z,76.89
2018-11-28T12:13:16.355Z,77.10
2018-11-28T12:15:43.815Z,77.00
2018-11-28T12:18:11.253Z,77.61
2018-11-28T12:20:53.464Z,76.38
2018-11-28T12:23:20.915Z,77.47
2018-11-28T12:25:48.354Z,80.16
2018-11-28T12:28:15.856Z,81.33
2018-11-28T12:30:43.324Z,79.16
2018-11-28T12:33:10.756Z,81.43
2018-11-28T12:35:38.337Z,80.00
2018-11-28T12:38:06.132Z,80.83
2018-11-28T12:40:34.373Z,80.77
2018-11-28T12:43:02.415Z,80.79
2018-11-28T12:45:29.898Z,79.37
2018-11-28T12:47:57.467Z,80.05
2018-11-28T12:50:26.133Z,79.88
2018-11-28T12:52:54.889Z,80.40
2018-11-28T12:55:22.681Z,79.24
2018-11-28T12:57:50.875Z,78.51
2018-11-28T13:00:20.528Z,78.96
2018-11-28T13:02:48.031Z,78.49
2018-11-28T13:05:19.522Z,79.36
2018-11-28T13:07:46.994Z,79.89
2018-11-28T13:10:26.218Z,80.06
2018-11-28T13:12:53.999Z,78.77
2018-11-28T13:15:22.252Z,77.38
2018-11-28T13:17:49.731Z,78.85
2018-11-28T13:20:18.151Z,80.13
2018-11-28T13:22:46.504Z,80.80
2018-11-28T13:25:16.989Z,80.01
2018-11-28T13:27:44.481Z,78.99
2018-11-28T13:30:16.050Z,79.93
2018-11-28T13:32:43.992Z,78.56
2018-11-28T13:35:12.450Z,81.03
2018-11-28T13:37:40.004Z,81.63
2018-11-28T13:40:09.932Z,81.48
2018-11-28T13:42:37.351Z,79.98
2018-11-28T13:45:09.009Z,78.90
2018-11-28T13:47:36.470Z,80.51
2018-11-28T13:50:04.744Z,81.47
2018-11-28T13:52:32.150Z,81.90
2018-11-28T13:57:27.150Z,82.90
2018-11-28T13:59:54.587Z,82.55
2018-11-28T14:02:22.020Z,83.67
2018-11-28T14:04:49.430Z,84.52
2018-11-28T14:07:16.992Z,84.68
2018-11-28T14:09:44.416Z,84.13
2018-11-28T14:12:11.933Z,83.39
2018-11-28T14:14:40.501Z,84.29
2018-11-28T14:17:06.830Z,84.44
2018-11-28T14:19:34.233Z,85.61
2018-11-28T14:22:01.742Z,85.08
2018-11-28T14:24:29.260Z,86.02
2018-11-28T14:26:56.770Z,86.28
2018-11-28T14:29:24.225Z,86.25
2018-11-28T14:31:51.685Z,86.12
2018-11-28T14:34:19.145Z,85.27
2018-11-28T14:36:46.618Z,86.47
2018-11-28T14:39:14.047Z,87.08
2018-11-28T14:41:41.495Z,86.78
2018-11-28T14:44:08.935Z,85.92
2018-11-28T14:46:36.354Z,86.55
2018-11-28T14:49:03.910Z,86.67
2018-11-28T14:51:31.370Z,87.88
2018-11-28T14:53:58.855Z,87.74
2018-11-28T14:56:26.284Z,87.36
2018-11-28T14:58:53.710Z,87.34
2018-11-28T15:01:21.116Z,88.44
2018-11-28T15:03:48.562Z,88.54
2018-11-28T15:06:24.540Z,88.85
2018-11-28T15:08:52.103Z,88.09
2018-11-28T15:11:19.500Z,88.99
2018-11-28T15:13:46.994Z,89.59
2018-11-28T15:16:14.456Z,89.95
2018-11-28T15:18:41.958Z,90.45
2018-11-28T15:21:10.330Z,89.97
2018-11-28T15:23:38.294Z,90.26
2018-11-28T15:26:05.923Z,90.96
2018-11-28T15:28:33.370Z,90.84
2018-11-28T15:31:00.888Z,91.44
2018-11-28T15:33:28.371Z,90.47
2018-11-28T15:35:55.871Z,90.36
2018-11-28T15:38:23.340Z,90.93
2018-11-28T15:40:50.956Z,90.33
2018-11-28T15:43:18.413Z,91.24
2018-11-28T15:45:45.861Z,90.05
2018-11-28T15:48:13.315Z,91.26
2018-11-28T15:50:40.796Z,91.48
2018-11-28T15:53:08.290Z,91.40
2018-11-28T15:55:35.777Z,91.18
2018-11-28T15:58:03.238Z,91.23
2018-11-28T16:00:30.701Z,91.52
2018-11-28T16:02:58.186Z,91.37
2018-11-28T16:05:25.622Z,90.93
2018-11-28T16:07:53.095Z,90.63
2018-11-28T16:10:26.222Z,90.53
2018-11-28T16:12:53.666Z,91.79
2018-11-28T16:15:23.656Z,90.87
2018-11-28T16:17:51.176Z,91.01
2018-11-28T16:20:18.660Z,91.70
2018-11-28T16:22:46.132Z,92.19
2018-11-28T16:25:13.716Z,92.00
2018-11-28T16:27:41.611Z,91.09
2018-11-28T16:30:14.709Z,91.76
2018-11-28T16:32:43.134Z,91.26
2018-11-28T16:35:16.557Z,90.42
2018-11-28T16:37:44.173Z,91.35
2018-11-28T16:40:13.403Z,90.59
2018-11-28T16:42:40.933Z,91.62
2018-11-28T16:45:12.937Z,90.69
2018-11-28T16:47:40.368Z,91.62
2018-11-28T16:50:08.752Z,91.84
2018-11-28T16:52:36.325Z,91.77
2018-11-28T16:55:03.951Z,90.97
2018-11-28T16:57:31.467Z,91.46
2018-11-28T16:59:58.985Z,90.98
2018-11-28T17:02:26.447Z,90.85
2018-11-28T17:04:53.935Z,91.06
2018-11-28T17:07:21.378Z,92.01
2018-11-28T17:09:48.894Z,92.00
2018-11-28T17:12:16.456Z,92.12
2018-11-28T17:14:43.972Z,92.14
2018-11-28T17:17:11.455Z,90.92
2018-11-28T17:19:38.967Z,90.90
2018-11-28T17:22:06.437Z,91.73
2018-11-28T17:24:33.877Z,92.07
2018-11-28T17:27:01.391Z,91.24
2018-11-28T17:29:28.884Z,91.28
2018-11-28T17:31:56.346Z,91.58
2018-11-28T17:34:23.847Z,93.16
2018-11-28T17:36:51.276Z,91.22
2018-11-28T17:39:18.727Z,92.12
2018-11-28T17:41:46.250Z,92.39
2018-11-28T17:44:13.660Z,91.34
2018-11-28T17:46:41.158Z,92.15
2018-11-28T17:49:08.636Z,92.77
2018-11-28T17:51:36.174Z,92.70
2018-11-28T17:54:03.600Z,92.17
2018-11-28T17:56:31.164Z,92.92
2018-11-28T17:58:58.580Z,92.47
2018-11-28T18:01:26.725Z,93.19
2018-11-28T18:03:54.235Z,93.22
2018-11-28T18:06:21.751Z,92.40
2018-11-28T18:08:49.227Z,93.03
2018-11-28T18:11:16.710Z,93.91
2018-11-28T18:13:44.399Z,93.04
2018-11-28T18:16:12.018Z,93.80
2018-11-28T18:18:39.438Z,92.71
2018-11-28T18:21:06.934Z,93.53
2018-11-28T18:23:34.496Z,94.22
2018-11-28T18:26:04.540Z,93.57
2018-11-28T18:28:31.974Z,93.48
2018-11-28T18:30:59.425Z,94.49
2018-11-28T18:33:26.885Z,93.22
2018-11-28T18:35:54.382Z,94.10
2018-11-28T18:38:21.954Z,93.53
2018-11-28T18:40:49.476Z,93.99
2018-11-28T18:43:16.925Z,93.84
2018-11-28T18:45:46.312Z,93.80
2018-11-28T18:48:13.778Z,94.03
2018-11-28T18:50:41.303Z,93.59
2018-11-28T18:53:08.782Z,93.42
2018-11-28T18:55:36.269Z,93.36
2018-11-28T18:58:03.728Z,93.92
2018-11-28T19:00:31.259Z,93.26
2018-11-28T19:02:58.762Z,93.63
2018-11-28T19:05:26.292Z,94.49
2018-11-28T19:07:53.764Z,93.91
2018-11-28T19:10:26.353Z,93.92
2018-11-28T19:12:50.230Z,94.05
2018-11-28T19:15:20.834Z,93.06
2018-11-28T19:17:48.605Z,93.66
2018-11-28T19:20:18.006Z,94.06
2018-11-28T19:22:46.165Z,94.54
2018-11-28T19:25:36.255Z,94.22
2018-11-28T19:28:13.763Z,94.38
2018-11-28T19:30:41.463Z,94.12
2018-11-28T19:33:10.087Z,93.38
2018-11-28T19:35:37.616Z,94.35
2018-11-28T19:38:06.838Z,93.84
2018-11-28T19:41:08.400Z,93.27
2018-11-28T19:43:35.855Z,93.80
2018-11-28T19:46:03.365Z,93.77
2018-11-28T19:48:30.864Z,94.23
2018-11-28T19:50:59.278Z,94.89
2018-11-28T19:53:26.755Z,95.38
2018-11-28T19:55:54.365Z,95.46
2018-11-28T19:58:21.821Z,93.71
2018-11-28T20:00:49.277Z,94.38
2018-11-28T20:03:16.836Z,95.16
2018-11-28T20:05:44.361Z,94.54
2018-11-28T20:08:12.131Z,94.50
2018-11-28T20:10:39.642Z,95.24
2018-11-28T20:13:08.413Z,94.33
2018-11-28T20:15:35.921Z,94.64
2018-11-28T20:18:03.370Z,94.66
2018-11-28T20:20:31.196Z,94.91
2018-11-28T20:22:58.676Z,94.76
2018-11-28T20:25:26.222Z,94.77
2018-11-28T20:27:55.861Z,96.08
2018-11-28T20:30:28.007Z,94.82
2018-11-28T20:32:55.560Z,95.22
2018-11-28T20:35:23.128Z,94.96
2018-11-28T20:37:50.636Z,95.23
2018-11-28T20:40:18.248Z,94.73
2018-11-28T20:42:48.276Z,95.00
2018-11-28T20:45:15.885Z,94.98
2018-11-28T20:47:43.337Z,95.80
2018-11-28T20:50:16.027Z,94.96
2018-11-28T20:52:45.444Z,95.04
2018-11-28T20:55:13.207Z,95.46
2018-11-28T20:57:41.485Z,96.01
2018-11-28T21:00:11.615Z,95.78
2018-11-28T21:02:39.079Z,95.19
2018-11-28T21:05:06.641Z,95.05
2018-11-28T21:07:34.076Z,95.75
2018-11-28T21:10:07.215Z,95.79
2018-11-28T21:12:34.653Z,95.19
2018-11-28T21:15:02.221Z,95.85
2018-11-28T21:17:29.787Z,95.78
2018-11-28T21:19:57.304Z,95.24
2018-11-28T21:22:24.777Z,95.04
2018-11-28T21:24:52.252Z,95.52
2018-11-28T21:27:19.711Z,95.47
2018-11-28T21:29:47.417Z,94.96
2018-11-28T21:32:14.872Z,95.07
2018-11-28T21:34:42.306Z,94.64
2018-11-28T21:37:09.836Z,94.62
2018-11-28T21:39:37.263Z,94.28
2018-11-28T21:42:04.946Z,95.70
2018-11-28T21:44:32.336Z,95.30
2018-11-28T21:46:59.757Z,94.80
2018-11-28T21:49:27.181Z,94.82
2018-11-28T21:51:54.631Z,95.42
2018-11-28T21:54:22.066Z,94.74
2018-11-28T21:56:49.533Z,95.45
2018-11-28T21:59:17.259Z,95.40
2018-11-28T22:01:44.896Z,95.01
2018-11-28T22:04:12.334Z,95.07
2018-11-28T22:06:39.757Z,95.39
2018-11-28T22:09:09.668Z,95.57
2018-11-28T22:11:37.208Z,94.47
2018-11-28T22:14:05.331Z,95.29
2018-11-28T22:16:32.723Z,94.12
2018-11-28T22:19:00.677Z,94.16
2018-11-28T22:21:28.636Z,94.96
2018-11-28T22:23:57.012Z,94.60
2018-11-28T22:26:24.538Z,94.81
2018-11-28T22:28:52.042Z,94.48
2018-11-28T22:31:20.176Z,94.41
2018-11-28T22:33:47.662Z,94.01
2018-11-28T22:36:15.046Z,93.74
2018-11-28T22:38:42.966Z,94.31
2018-11-28T22:41:10.740Z,93.92
2018-11-28T22:43:38.229Z,94.68
2018-11-28T22:46:06.000Z,93.93
2018-11-28T22:48:33.382Z,94.56
2018-11-28T22:51:00.817Z,94.49
2018-11-28T22:53:28.200Z,93.29
2018-11-28T22:55:55.699Z,93.35
2018-11-28T22:58:23.092Z,93.22
2018-11-28T23:00:56.165Z,93.81
2018-11-28T23:03:23.588Z,93.80
2018-11-28T23:05:51.579Z,93.05
2018-11-28T23:08:19.922Z,94.07
2018-11-28T23:10:47.813Z,93.62
2018-11-28T23:13:16.596Z,93.48
2018-11-28T23:15:44.080Z,94.01
2018-11-28T23:18:11.738Z,93.82
2018-11-28T23:20:39.158Z,94.06
2018-11-28T23:23:07.604Z,93.94
2018-11-28T23:25:35.037Z,94.60
2018-11-28T23:28:02.532Z,94.30
2018-11-28T23:30:30.041Z,94.09
2018-11-28T23:32:57.523Z,94.16
2018-11-28T23:35:25.166Z,94.45
2018-11-28T23:38:02.107Z,94.08
2018-11-28T23:40:29.519Z,93.68
2018-11-28T23:42:56.972Z,94.65
2018-11-28T23:45:24.932Z,94.52
2018-11-28T23:47:52.363Z,94.47
2018-11-28T23:50:21.647Z,94.82
2018-11-28T23:52:49.647Z,93.99
2018-11-28T23:55:19.842Z,94.04
2018-11-28T23:57:48.338Z,93.99
